Dudinka, Russia
Current Conditions -  °F | °C
As of 12:30 AM on Sunday 26 Oct 2014 (Local Time) from USNN Reporting Station
Light Snow Light Snow  
Wind Chill:   Ceiling: 5300
Heat Index:   Visibility: 3mi
Dew Point:   Wind: 4mph
Humidity: 85%   Direction: 260°W
Pressure: 29.56"   Gusts: NA
Location:  69.41°N, 86.18°E
Report Text: USNN 251730Z 26002MPS 5000 -SN OVC053 M13/M15 Q1001 NOSIG RMKQFE747 03491240
Loading
Personal Weather Stations






























Interactive Weather Map
Tropical Storm Tracking
New forecast layout! Learn more

10-Day Weather Forecast

Advertisements
Track Severe Weather on mobile